Time;durP1;ratioP1;P1;durP2;ratioP2;P2;SDS_P1;SDS_P2;PMS_P1;PMS_P2;Temp;Humidity;BMP_temperature;BMP_pressure;BME280_temperature;BME280_humidity;BME280_pressure;Samples;Min_cycle;Max_cycle;Signal;HPM_P1;HPM_P2
2022/09/01 00:00:27;;;;;;;5.93;2.78;;;;;;;13.80;100.00;164173.22;4990703;28;20054;-71
2022/09/01 00:02:54;;;;;;;5.88;3.60;;;;;;;13.81;100.00;164175.94;4991782;28;20030;-71
2022/09/01 00:05:19;;;;;;;4.13;2.78;;;;;;;13.82;100.00;164178.59;4990431;28;20042;-71
2022/09/01 00:07:45;;;;;;;3.10;2.03;;;;;;;13.82;100.00;164177.25;4992015;28;20105;-68
2022/09/01 00:10:10;;;;;;;9.18;3.17;;;;;;;13.81;100.00;164175.94;4990184;28;20548;-68
2022/09/01 00:12:36;;;;;;;5.47;2.35;;;;;;;13.80;100.00;164173.22;4992020;28;20030;-67
2022/09/01 00:15:04;;;;;;;3.25;2.45;;;;;;;13.79;100.00;164171.84;4990479;28;20061;-68
2022/09/01 00:17:30;;;;;;;3.35;1.65;;;;;;;13.80;100.00;164173.22;4991461;28;20500;-71
2022/09/01 00:19:55;;;;;;;8.50;2.30;;;;;;;13.78;100.00;164169.13;4990629;28;20054;-65
2022/09/01 00:22:20;;;;;;;6.75;1.70;;;;;;;13.74;100.00;164156.94;4992119;28;20076;-69
2022/09/01 00:25:10;;;;;;;7.25;2.60;;;;;;;13.73;100.00;164154.28;4989869;28;20085;-70
2022/09/01 00:27:36;;;;;;;3.70;1.95;;;;;;;13.68;100.00;164140.72;4972333;28;20046;-70
2022/09/01 00:30:01;;;;;;;2.70;2.08;;;;;;;13.69;100.00;164143.44;4970790;28;20396;-70
2022/09/01 00:32:27;;;;;;;7.13;2.00;;;;;;;13.66;100.00;164135.34;4972346;28;20019;-69
2022/09/01 00:34:52;;;;;;;7.22;3.03;;;;;;;13.63;100.00;164128.53;4971121;28;20106;-69
2022/09/01 00:37:17;;;;;;;2.50;1.88;;;;;;;13.61;100.00;164124.50;4991856;28;20466;-69
2022/09/01 00:39:43;;;;;;;6.45;1.90;;;;;;;13.61;100.00;164123.19;4989722;28;20108;-68
2022/09/01 00:42:08;;;;;;;3.55;1.95;;;;;;;13.59;100.00;164119.09;4992072;28;20029;-69
2022/09/01 00:44:35;;;;;;;4.88;1.55;;;;;;;13.57;100.00;164113.72;4990198;28;20034;-69
2022/09/01 00:47:01;;;;;;;2.83;1.77;;;;;;;13.54;100.00;164104.25;4991123;28;20474;-69
2022/09/01 00:49:34;;;;;;;2.63;1.70;;;;;;;13.47;100.00;164088.03;4990614;28;20026;-68
2022/09/01 00:52:13;;;;;;;6.57;1.67;;;;;;;13.50;100.00;164094.78;4993849;28;20100;-69
2022/09/01 00:54:43;;;;;;;2.92;2.03;;;;;;;13.50;100.00;164094.78;4996502;28;20053;-69
2022/09/01 00:57:11;;;;;;;1.67;1.55;;;;;;;13.51;100.00;164097.50;4998175;28;20066;-69
2022/09/01 00:59:42;;;;;;;21.15;3.95;;;;;;;13.52;100.00;164100.16;4996562;28;20026;-69
2022/09/01 01:02:10;;;;;;;7.57;2.33;;;;;;;13.53;100.00;164101.53;4997757;28;20022;-69
2022/09/01 01:04:36;;;;;;;2.95;2.00;;;;;;;13.56;100.00;164111.00;4996600;28;20030;-69
2022/09/01 01:07:01;;;;;;;2.63;1.92;;;;;;;13.57;100.00;164113.72;4998029;28;20100;-69
2022/09/01 01:09:31;;;;;;;3.97;2.08;;;;;;;13.59;100.00;164117.75;4996052;28;20481;-68
2022/09/01 01:11:59;;;;;;;6.15;2.42;;;;;;;13.59;100.00;164117.75;4997874;28;20659;-69
2022/09/01 01:14:30;;;;;;;1.67;1.58;;;;;;;13.56;100.00;164111.00;4998365;28;20145;-69
2022/09/01 01:16:58;;;;;;;5.10;1.70;;;;;;;13.52;100.00;164100.16;4995783;28;20494;-70
2022/09/01 01:25:22;;;;;;;2.47;1.58;;;;;;;13.51;100.00;164097.50;4995949;28;20517;-68
2022/09/01 01:27:48;;;;;;;3.55;1.92;;;;;;;13.53;100.00;164102.88;4997343;28;20060;-69
2022/09/01 01:30:17;;;;;;;4.57;2.33;;;;;;;13.52;100.00;164098.81;4996473;28;20050;-68
2022/09/01 01:32:44;;;;;;;2.42;1.42;;;;;;;13.49;100.00;164092.06;4997269;28;20054;-68
2022/09/01 01:35:13;;;;;;;5.32;1.40;;;;;;;13.48;100.00;164089.34;4996254;28;20042;-68
2022/09/01 01:37:45;;;;;;;1.77;1.67;;;;;;;13.45;100.00;164081.22;4996621;28;20030;-68
2022/09/01 01:40:18;;;;;;;4.20;1.45;;;;;;;13.42;100.00;164074.47;4996357;28;20054;-70
2022/09/01 01:42:45;;;;;;;2.05;1.90;;;;;;;13.41;100.00;164070.44;4997690;28;20030;-70
2022/09/01 01:45:18;;;;;;;1.63;1.50;;;;;;;13.39;100.00;164065.00;4996216;28;20104;-70
2022/09/01 01:47:50;;;;;;;3.45;2.10;;;;;;;13.35;100.00;164054.16;4978150;28;20030;-70
2022/09/01 01:50:15;;;;;;;5.40;2.17;;;;;;;13.30;100.00;164043.31;4976833;28;20042;-70
2022/09/01 01:52:41;;;;;;;2.42;1.48;;;;;;;13.28;100.00;164036.56;4977722;28;20038;-69
2022/09/01 01:55:11;;;;;;;5.25;1.90;;;;;;;13.28;100.00;164036.56;4977013;28;20046;-69
2022/09/01 01:57:38;;;;;;;3.58;1.30;;;;;;;13.26;100.00;164031.16;4996463;28;20433;-69
2022/09/01 02:00:04;;;;;;;1.95;1.35;;;;;;;13.25;100.00;164029.81;4995778;28;20062;-69
2022/09/01 02:02:30;;;;;;;4.32;2.40;;;;;;;13.22;100.00;164020.34;4997403;28;20486;-69
2022/09/01 02:04:55;;;;;;;2.25;1.90;;;;;;;13.19;100.00;164013.59;4991865;28;20046;-70
2022/09/01 02:07:21;;;;;;;6.38;1.67;;;;;;;13.17;100.00;164008.19;4994140;28;20026;-70
2022/09/01 02:09:47;;;;;;;2.20;1.83;;;;;;;13.15;100.00;164002.75;4991824;28;20026;-70
2022/09/01 02:12:12;;;;;;;3.22;1.40;;;;;;;13.15;100.00;164002.75;4994768;28;20159;-70
2022/09/01 02:14:38;;;;;;;2.35;2.15;;;;;;;13.16;100.00;164005.47;4992991;28;20030;-70
2022/09/01 02:17:05;;;;;;;3.97;1.27;;;;;;;13.10;100.00;163989.25;4993679;28;20023;-70
2022/09/01 02:19:30;;;;;;;3.03;1.98;;;;;;;13.10;100.00;163989.25;4994116;28;20034;-70
2022/09/01 02:21:58;;;;;;;2.70;1.80;;;;;;;13.11;100.00;163991.97;4992582;28;20042;-71
2022/09/01 02:24:25;;;;;;;2.92;1.75;;;;;;;13.09;100.00;163986.53;4993364;28;20073;-70
2022/09/01 02:26:50;;;;;;;4.45;2.33;;;;;;;13.04;100.00;163973.03;4992192;28;20041;-70
2022/09/01 02:29:25;;;;;;;2.00;1.67;;;;;;;13.00;100.00;163964.91;4991771;28;20050;-70
2022/09/01 02:31:52;;;;;;;2.55;1.50;;;;;;;13.00;100.00;163964.91;4993619;28;20389;-70
2022/09/01 02:34:18;;;;;;;4.20;2.17;;;;;;;13.00;100.00;163964.91;4992594;28;20038;-72
2022/09/01 02:36:50;;;;;;;4.22;1.75;;;;;;;12.97;100.00;163956.81;4992778;28;20042;-71
2022/09/01 02:39:19;;;;;;;1.60;1.50;;;;;;;12.97;100.00;163955.44;4992200;28;20505;-70
2022/09/01 02:41:45;;;;;;;3.35;1.73;;;;;;;12.95;100.00;163951.41;4993908;28;20085;-70
2022/09/01 02:44:10;;;;;;;3.80;1.50;;;;;;;12.91;100.00;163939.22;4992627;28;20419;-70
2022/09/01 02:46:41;;;;;;;3.05;1.58;;;;;;;12.87;100.00;163929.78;4993036;28;20073;-70
2022/09/01 02:49:14;;;;;;;2.20;1.98;;;;;;;12.82;100.00;163916.28;4992431;28;20089;-71
2022/09/01 02:51:43;;;;;;;2.42;2.22;;;;;;;12.83;100.00;163918.97;4993770;28;20030;-70
2022/09/01 02:54:11;;;;;;;5.47;1.80;;;;;;;12.82;100.00;163916.28;4992123;28;20057;-68
2022/09/01 02:56:37;;;;;;;1.77;1.50;;;;;;;12.80;100.00;163910.84;4992084;28;20076;-68
2022/09/01 02:59:02;;;;;;;3.63;1.80;;;;;;;12.76;100.00;163900.06;4992108;28;20569;-67
2022/09/01 03:01:30;;;;;;;6.40;1.92;;;;;;;12.73;100.00;163891.94;4992098;28;20014;-68
2022/09/01 03:04:01;;;;;;;3.87;2.07;;;;;;;12.67;100.00;163878.44;4991281;28;20124;-67
2022/09/01 03:06:30;;;;;;;2.33;2.05;;;;;;;12.66;100.00;163875.72;4993634;28;20530;-67
2022/09/01 03:09:00;;;;;;;3.85;1.58;;;;;;;12.66;100.00;163875.72;4991543;28;20027;-67
2022/09/01 03:11:28;;;;;;;2.42;1.95;;;;;;;12.63;100.00;163867.59;4992650;28;20474;-67
2022/09/01 03:13:54;;;;;;;2.92;1.83;;;;;;;12.47;100.00;163824.38;4991908;28;20026;-66
2022/09/01 03:16:21;;;;;;;3.35;1.90;;;;;;;12.60;100.00;163859.50;4992541;28;20382;-65
2022/09/01 03:18:46;;;;;;;2.45;1.70;;;;;;;12.60;100.00;163859.50;4991839;28;20030;-63
2022/09/01 03:21:15;;;;;;;4.70;2.33;;;;;;;12.59;100.00;163856.78;4992822;28;20026;-65
2022/09/01 03:23:45;;;;;;;2.92;1.88;;;;;;;12.59;100.00;163856.78;4992777;28;20035;-65
2022/09/01 03:26:11;;;;;;;5.95;1.65;;;;;;;12.57;100.00;163851.38;4991637;28;20121;-66
2022/09/01 03:28:36;;;;;;;3.13;1.45;;;;;;;12.53;100.00;163841.91;4992870;28;20023;-65
2022/09/01 03:31:03;;;;;;;7.00;1.85;;;;;;;12.52;100.00;163837.88;4990318;28;20050;-64
2022/09/01 03:33:29;;;;;;;2.03;1.35;;;;;;;12.51;100.00;163835.16;4992816;28;20512;-64
2022/09/01 03:35:55;;;;;;;2.15;1.52;;;;;;;12.48;100.00;163827.03;4991349;28;20129;-64
2022/09/01 03:38:23;;;;;;;4.28;1.45;;;;;;;12.45;100.00;163820.28;4992464;28;20037;-64
2022/09/01 03:40:51;;;;;;;3.17;1.92;;;;;;;12.45;100.00;163820.28;4990635;28;20073;-67
2022/09/01 03:43:18;;;;;;;;;;;;;;;12.44;100.00;163817.59;4993423;28;20022;-64
2022/09/01 03:45:44;;;;;;;1.98;1.77;;;;;;;12.37;100.00;163800.03;4990755;28;19984;-69
2022/09/01 03:48:10;;;;;;;4.20;1.80;;;;;;;12.41;100.00;163808.13;4992914;28;20033;-69
2022/09/01 03:50:39;;;;;;;2.92;1.77;;;;;;;12.37;100.00;163800.03;4990145;28;20038;-67
2022/09/01 03:53:06;;;;;;;1.80;1.65;;;;;;;12.37;100.00;163798.66;4992418;28;20030;-67
2022/09/01 03:55:33;;;;;;;4.30;2.42;;;;;;;12.35;100.00;163793.28;4990691;28;20038;-66
2022/09/01 03:58:05;;;;;;;1.77;1.67;;;;;;;12.27;100.00;163773.00;4992539;28;20053;-66
2022/09/01 04:00:39;;;;;;;1.52;1.42;;;;;;;12.30;100.00;163779.75;4989871;28;20129;-69
2022/09/01 04:03:06;;;;;;;3.85;1.80;;;;;;;12.26;100.00;163770.28;4992303;28;20061;-69
2022/09/01 04:05:33;;;;;;;4.45;1.92;;;;;;;12.25;100.00;163766.25;4990738;28;20050;-69
2022/09/01 04:08:02;;;;;;;6.88;1.80;;;;;;;12.19;100.00;163751.38;4992263;28;20019;-69
2022/09/01 04:10:31;;;;;;;2.30;2.10;;;;;;;12.20;100.00;163754.09;4990453;28;20092;-71
2022/09/01 04:13:00;;;;;;;1.38;1.27;;;;;;;12.18;100.00;163748.66;4990485;28;20022;-68
2022/09/01 04:15:27;;;;;;;1.98;1.83;;;;;;;12.17;100.00;163747.34;4988790;28;20418;-68
2022/09/01 04:18:18;;;;;;;1.50;1.40;;;;;;;12.18;100.00;163748.66;4991871;28;20026;-68
2022/09/01 04:20:49;;;;;;;4.72;1.90;;;;;;;12.12;100.00;163732.47;4989758;28;20050;-69
2022/09/01 04:23:25;;;;;;;2.97;1.80;;;;;;;12.09;100.00;163724.38;4991779;28;20030;-68
2022/09/01 04:25:55;;;;;;;2.33;1.88;;;;;;;12.06;100.00;163718.97;4990296;28;20120;-68
2022/09/01 04:28:25;;;;;;;4.53;2.08;;;;;;;12.05;100.00;163714.94;4990976;28;20026;-68
2022/09/01 04:30:57;;;;;;;4.07;2.05;;;;;;;12.00;100.00;163702.75;4989870;28;20105;-68
2022/09/01 04:33:33;;;;;;;5.40;2.35;;;;;;;11.97;100.00;163694.63;4992101;28;20033;-68
2022/09/01 04:35:59;;;;;;;5.00;2.63;;;;;;;11.88;100.00;163671.63;4990146;28;20057;-68
2022/09/01 04:38:24;;;;;;;4.55;2.80;;;;;;;11.87;100.00;163667.59;4990913;28;20485;-68
2022/09/01 04:40:51;;;;;;;2.22;1.90;;;;;;;11.83;100.00;163656.75;4989142;28;20057;-68
2022/09/01 04:43:16;;;;;;;3.22;1.77;;;;;;;11.81;100.00;163651.34;4990231;28;20431;-66
2022/09/01 04:45:44;;;;;;;5.15;1.80;;;;;;;11.81;100.00;163651.34;4989913;28;20121;-66
2022/09/01 04:48:09;;;;;;;8.60;1.90;;;;;;;11.78;100.00;163643.28;4991712;28;20049;-66
2022/09/01 04:50:36;;;;;;;3.22;2.22;;;;;;;11.77;100.00;163640.56;4989747;28;20413;-66
2022/09/01 04:53:04;;;;;;;4.65;2.40;;;;;;;11.74;100.00;163635.16;4991987;28;20077;-66
2022/09/01 04:55:30;;;;;;;5.35;2.17;;;;;;;11.73;100.00;163631.09;4990089;28;20046;-66
2022/09/01 04:57:58;;;;;;;2.38;1.88;;;;;;;11.72;100.00;163629.78;4991393;28;20602;-66
2022/09/01 05:00:25;;;;;;;4.03;2.55;;;;;;;11.71;100.00;163627.06;4990036;28;20137;-65
2022/09/01 05:02:54;;;;;;;4.97;1.73;;;;;;;11.71;100.00;163625.69;4991622;28;20026;-65
2022/09/01 05:05:21;;;;;;;2.00;1.90;;;;;;;11.72;100.00;163629.78;4990008;28;20101;-66
2022/09/01 05:07:51;;;;;;;2.25;1.85;;;;;;;11.73;100.00;163632.44;4991200;28;20057;-66
2022/09/01 05:10:18;;;;;;;6.53;2.70;;;;;;;11.72;100.00;163629.78;4990124;28;20057;-65
2022/09/01 05:12:44;;;;;;;4.18;3.42;;;;;;;11.73;100.00;163631.09;4990996;28;20146;-64
2022/09/01 05:15:11;;;;;;;2.72;2.38;;;;;;;11.80;100.00;163648.69;4989132;28;20038;-64
2022/09/01 05:17:37;;;;;;;4.10;2.13;;;;;;;11.84;100.00;163659.47;4990258;28;20443;-65
2022/09/01 05:20:03;;;;;;;2.85;1.90;;;;;;;11.88;100.00;163671.63;4989352;28;20038;-65
2022/09/01 05:22:30;;;;;;;3.80;3.33;;;;;;;11.92;100.00;163681.09;4990180;28;20030;-65
2022/09/01 05:24:56;;;;;;;2.80;1.98;;;;;;;11.95;100.00;163689.16;4988439;28;20046;-65
2022/09/01 05:27:22;;;;;;;7.18;2.38;;;;;;;12.00;100.00;163702.75;4983007;28;20054;-65
2022/09/01 05:29:48;;;;;;;3.35;2.67;;;;;;;12.04;100.00;163712.22;4983525;28;20112;-65
2022/09/01 05:32:13;;;;;;;4.20;2.90;;;;;;;12.08;100.00;163721.69;4988962;28;20548;-65
2022/09/01 05:34:41;;;;;;;29.17;5.30;;;;;;;12.11;100.00;163731.13;4988642;28;20038;-71
2022/09/01 05:37:07;;;;;;;4.30;2.08;;;;;;;12.14;100.00;163739.22;4991584;28;20164;-66
2022/09/01 05:39:34;;;;;;;4.22;1.98;;;;;;;12.14;100.00;163737.88;4991218;28;20043;-68
2022/09/01 05:42:00;;;;;;;4.15;2.58;;;;;;;12.20;100.00;163754.09;4994996;28;20101;-61
2022/09/01 05:44:26;;;;;;;4.68;2.05;;;;;;;12.25;100.00;163767.59;4993458;28;20049;-61
2022/09/01 05:46:52;;;;;;;4.80;3.00;;;;;;;12.28;100.00;163775.72;4994562;28;20378;-61
2022/09/01 05:49:17;;;;;;;4.30;2.28;;;;;;;12.32;100.00;163786.50;4993207;28;20567;-61
2022/09/01 05:51:48;;;;;;;5.07;2.20;;;;;;;12.37;100.00;163798.66;4994254;28;20018;-61
2022/09/01 05:54:24;;;;;;;2.80;2.08;;;;;;;12.36;100.00;163796.00;4993636;28;20498;-61
2022/09/01 05:56:49;;;;;;;3.17;2.25;;;;;;;12.48;100.00;163827.03;4994212;28;20027;-61
2022/09/01 05:59:15;;;;;;;3.78;1.90;;;;;;;12.57;100.00;163851.38;4993086;28;20134;-61
2022/09/01 06:01:41;;;;;;;2.65;2.22;;;;;;;12.65;100.00;163871.69;4994321;28;20026;-61
2022/09/01 06:04:09;;;;;;;2.22;2.05;;;;;;;12.73;100.00;163891.94;4993368;28;20462;-61
2022/09/01 06:06:45;;;;;;;7.33;2.77;;;;;;;12.80;100.00;163910.84;4994167;28;20049;-61
2022/09/01 06:09:12;;;;;;;5.85;2.83;;;;;;;12.84;100.00;163921.69;4993205;28;20030;-61
2022/09/01 06:11:39;;;;;;;2.50;2.08;;;;;;;12.94;100.00;163947.38;4993787;28;20030;-61
2022/09/01 06:14:07;;;;;;;8.30;2.00;;;;;;;13.04;100.00;163973.03;4993072;28;20038;-61
2022/09/01 06:16:34;;;;;;;3.88;2.83;;;;;;;13.12;100.00;163994.66;4994041;28;20038;-61
2022/09/01 06:19:00;;;;;;;3.03;2.28;;;;;;;13.21;100.00;164019.03;4992681;28;20029;-61
2022/09/01 06:21:27;;;;;;;8.70;2.78;;;;;;;13.31;100.00;164046.03;4994054;28;20038;-61
2022/09/01 06:23:54;;;;;;;3.55;2.33;;;;;;;13.44;100.00;164078.56;4992822;28;20033;-60
2022/09/01 06:26:28;;;;;;;3.90;2.40;;;;;;;13.54;100.00;164105.56;4994146;28;20027;-61
2022/09/01 06:28:56;;;;;;;6.00;2.25;;;;;;;13.69;100.00;164143.44;4992974;28;20022;-61
2022/09/01 06:31:23;;;;;;;7.97;2.58;;;;;;;13.82;100.00;164178.59;4994051;28;20133;-61
2022/09/01 06:33:54;;;;;;;1.97;1.80;;;;;;;13.92;100.00;164205.66;4991139;28;20037;-61
2022/09/01 06:36:24;;;;;;;8.57;2.28;;;;;;;14.10;100.00;164251.66;4993487;28;20034;-61
2022/09/01 06:38:51;;;;;;;3.40;1.77;;;;;;;14.24;100.00;164289.53;4991991;28;20031;-61
2022/09/01 06:41:18;;;;;;;2.00;1.83;;;;;;;14.39;100.00;164327.41;4993296;28;20085;-61
2022/09/01 06:43:45;;;;;;;2.17;1.95;;;;;;;14.51;100.00;164359.88;4991130;28;20474;-61
2022/09/01 06:46:10;;;;;;;2.90;2.40;;;;;;;14.68;100.00;164403.22;5002942;28;20037;-61
2022/09/01 06:48:45;;;;;;;7.15;2.08;;;;;;;14.82;100.00;164439.78;5013033;28;20072;-61
2022/09/01 06:51:12;;;;;;;2.42;1.98;;;;;;;15.01;100.00;164489.81;4997462;28;20034;-61
2022/09/01 06:53:38;;;;;;;4.55;2.67;;;;;;;15.16;100.00;164530.41;4993556;28;20030;-61
2022/09/01 06:56:04;;;;;;;3.53;1.70;;;;;;;15.28;100.00;164560.22;4991826;28;20417;-61
2022/09/01 06:58:30;;;;;;;2.47;2.10;;;;;;;15.46;100.00;164608.94;4993324;28;20026;-61
2022/09/01 07:00:55;;;;;;;1.50;1.40;;;;;;;15.60;100.00;164645.50;4991768;28;20038;-61
2022/09/01 07:03:21;;;;;;;2.30;1.67;;;;;;;15.73;100.00;164679.38;4993384;28;20505;-61
2022/09/01 07:05:50;;;;;;;5.68;1.30;;;;;;;15.89;100.00;164720.03;4991275;28;20041;-61
2022/09/01 07:08:20;;;;;;;;;;;;;;;16.07;100.00;164767.44;4993923;28;20026;-61
2022/09/01 07:10:50;;;;;;;8.18;1.73;;;;;;;16.24;100.00;164812.09;4991171;28;20400;-61
2022/09/01 07:13:24;;;;;;;5.53;2.20;;;;;;;16.41;100.00;164856.78;4993000;28;20073;-61
2022/09/01 07:15:51;;;;;;;5.47;2.28;;;;;;;16.60;100.00;164906.91;4972155;28;20049;-61
2022/09/01 07:18:20;;;;;;;2.72;2.47;;;;;;;16.83;100.00;164966.53;4973751;28;20085;-61
2022/09/01 07:20:47;;;;;;;1.25;1.00;;;;;;;17.27;100.00;165083.09;4972005;28;20042;-61
2022/09/01 07:23:15;;;;;;;3.92;1.60;;;;;;;18.08;100.00;165297.31;4973594;28;20045;-61
2022/09/01 07:25:43;;;;;;;3.92;1.40;;;;;;;18.83;100.00;165492.56;4971597;28;20510;-61
2022/09/01 07:28:11;;;;;;;4.40;1.58;;;;;;;19.47;100.00;165660.88;4973735;28;20470;-61
2022/09/01 07:30:47;;;;;;;6.50;1.50;;;;;;;20.06;100.00;165816.94;4971764;28;20054;-61
2022/09/01 07:33:13;;;;;;;3.80;1.77;;;;;;;20.14;100.00;165837.31;4973034;28;20038;-62
2022/09/01 07:35:40;;;;;;;4.43;1.75;;;;;;;20.23;100.00;165860.38;4971988;28;20526;-61
2022/09/01 07:38:07;;;;;;;6.30;1.25;;;;;;;20.40;100.00;165905.16;4973291;28;20043;-61
2022/09/01 07:40:37;;;;;;;2.42;1.27;;;;;;;20.49;100.00;165929.63;4971482;28;20066;-61
2022/09/01 07:43:07;;;;;;;1.42;1.15;;;;;;;20.69;100.00;165981.19;4973431;28;20049;-61
2022/09/01 07:45:34;;;;;;;1.40;0.80;;;;;;;20.83;100.00;166017.91;4971697;28;20058;-61
2022/09/01 07:48:05;;;;;;;3.75;1.92;;;;;;;21.26;100.00;166131.97;4971725;28;20418;-61
2022/09/01 07:50:31;;;;;;;1.77;1.58;;;;;;;21.26;100.00;166131.97;4971565;28;20130;-61
2022/09/01 07:52:56;;;;;;;6.28;2.08;;;;;;;22.46;100.00;166448.56;4973059;28;20072;-61
2022/09/01 07:55:21;;;;;;;2.13;1.73;;;;;;;22.75;100.00;166524.66;4971442;28;20042;-61
2022/09/01 07:57:46;;;;;;;5.68;1.85;;;;;;;22.95;100.00;166576.34;4972892;28;20030;-61
2022/09/01 08:00:14;;;;;;;4.45;1.98;;;;;;;22.96;100.00;166579.06;4974923;28;20034;-62
2022/09/01 08:02:43;;;;;;;3.95;1.60;;;;;;;22.74;100.00;166522.00;5006824;28;20097;-61
2022/09/01 08:05:12;;;;;;;3.78;1.23;;;;;;;22.39;100.00;166429.53;5010371;28;20044;-61
2022/09/01 08:07:38;;;;;;;5.22;1.40;;;;;;;22.09;100.00;166350.69;4994369;28;20134;-62
2022/09/01 08:10:06;;;;;;;7.80;1.75;;;;;;;21.70;100.00;166247.47;5001556;28;20113;-62
2022/09/01 08:12:32;;;;;;;2.58;0.90;;;;;;;21.91;100.00;166301.81;5011565;28;20087;-62
2022/09/01 08:14:57;;;;;;;5.03;1.00;;;;;;;21.91;100.00;166301.81;5010154;28;20496;-62
2022/09/01 08:17:22;;;;;;;4.97;1.30;;;;;;;22.32;100.00;166410.47;5011571;28;20025;-61
2022/09/01 08:19:48;;;;;;;3.40;1.70;;;;;;;22.35;100.00;166418.66;5009879;28;20551;-62
2022/09/01 08:22:14;;;;;;;1.95;1.60;;;;;;;22.77;100.00;166530.13;5011638;28;20025;-62
2022/09/01 08:24:40;;;;;;;5.03;1.55;;;;;;;23.28;100.00;166663.34;5010069;28;20034;-62
2022/09/01 08:27:07;;;;;;;1.45;1.05;;;;;;;23.56;100.00;166738.16;5011350;28;20475;-62
2022/09/01 08:29:32;;;;;;;1.70;1.02;;;;;;;23.63;98.13;166755.84;5009912;28;20049;-62
2022/09/01 08:31:58;;;;;;;2.10;1.25;;;;;;;23.48;98.40;166715.03;5011583;28;20424;-61
2022/09/01 08:34:24;;;;;;;1.85;1.20;;;;;;;23.61;97.61;166750.38;5009859;28;20092;-62
2022/09/01 08:36:50;;;;;;;1.95;1.23;;;;;;;23.35;96.38;166682.38;5011495;28;20021;-62
2022/09/01 08:39:15;;;;;;;3.72;1.08;;;;;;;22.84;95.73;166546.41;5010181;28;20049;-62
2022/09/01 08:41:46;;;;;;;2.28;1.38;;;;;;;22.55;96.62;166470.31;5011203;28;20037;-62
2022/09/01 08:44:34;;;;;;;3.35;1.15;;;;;;;22.32;99.00;166411.84;5010219;28;20112;-62
2022/09/01 08:47:04;;;;;;;3.50;2.00;;;;;;;21.92;99.73;166304.53;5011596;28;20393;-62
2022/09/01 08:49:30;;;;;;;1.83;1.00;;;;;;;22.01;100.00;166328.94;5009744;28;20112;-62
2022/09/01 08:52:10;;;;;;;4.10;1.20;;;;;;;22.11;100.00;166354.78;5011122;28;20069;-62
2022/09/01 08:54:45;;;;;;;7.70;2.00;;;;;;;22.08;100.00;166347.97;5009678;28;20084;-62
2022/09/01 08:57:19;;;;;;;2.65;1.00;;;;;;;22.07;99.73;166345.28;5011610;28;20026;-61
2022/09/01 08:59:45;;;;;;;5.68;1.45;;;;;;;22.13;100.00;166361.59;5009716;28;20038;-62
2022/09/01 09:02:31;;;;;;;1.98;1.05;;;;;;;21.93;100.00;166307.25;5011027;28;20026;-62
2022/09/01 09:05:15;;;;;;;12.90;1.13;;;;;;;22.05;100.00;166339.84;5009835;28;20404;-61
2022/09/01 09:08:04;;;;;;;5.88;1.15;;;;;;;22.26;99.17;166394.16;5010995;28;20034;-62
2022/09/01 09:10:42;;;;;;;3.28;0.98;;;;;;;22.52;98.68;166462.19;5009246;28;20034;-62
2022/09/01 09:13:15;;;;;;;1.40;0.90;;;;;;;22.73;96.87;166519.25;5012268;28;20021;-62
2022/09/01 09:15:46;;;;;;;1.02;0.90;;;;;;;22.68;96.92;166505.63;5013706;28;20034;-62
2022/09/01 09:18:43;;;;;;;4.60;0.95;;;;;;;22.80;95.02;166538.28;5014746;28;20030;-62
2022/09/01 09:21:17;;;;;;;5.05;0.82;;;;;;;22.96;96.33;166579.06;5013712;28;20056;-62
2022/09/01 09:23:47;;;;;;;8.75;1.48;;;;;;;23.02;91.06;166595.38;5013424;28;20477;-62
2022/09/01 09:26:12;;;;;;;1.75;1.50;;;;;;;23.27;92.33;166660.69;5014559;28;20033;-62
2022/09/01 09:28:38;;;;;;;3.55;0.80;;;;;;;23.30;88.47;166668.81;5014016;28;20428;-61
2022/09/01 09:31:27;;;;;;;5.03;1.40;;;;;;;23.48;87.95;166716.38;5014591;28;20045;-61
2022/09/01 09:33:52;;;;;;;1.10;0.90;;;;;;;23.77;86.68;166793.91;5012934;28;20048;-62
2022/09/01 09:36:21;;;;;;;5.43;1.35;;;;;;;24.11;84.45;166880.97;5015100;28;20022;-62
2022/09/01 09:39:09;;;;;;;2.25;1.10;;;;;;;24.39;85.70;166955.78;5013092;28;20033;-62
2022/09/01 09:41:34;;;;;;;;;;;;;;;24.33;81.20;166939.47;5015211;28;20041;-62
2022/09/01 09:44:15;;;;;;;4.57;1.35;;;;;;;24.29;81.48;166929.94;5013500;28;19956;-62
2022/09/01 09:46:43;;;;;;;5.22;1.23;;;;;;;24.46;81.46;166974.81;5014076;28;20021;-62
2022/09/01 09:49:25;;;;;;;2.20;1.25;;;;;;;24.33;80.90;166940.81;5013026;28;20042;-62
2022/09/01 09:51:53;;;;;;;8.15;1.95;;;;;;;24.58;81.27;167006.09;5014495;28;20422;-62
2022/09/01 09:54:18;;;;;;;;;;;;;;;24.18;80.53;166900.00;5013388;28;20117;-62
2022/09/01 09:56:45;;;;;;;8.10;1.25;;;;;;;24.68;80.85;167033.38;5014400;28;19910;-62
2022/09/01 09:59:22;;;;;;;4.78;1.20;;;;;;;24.86;78.72;167081.00;5012796;28;20041;-62
2022/09/01 10:01:50;;;;;;;7.88;1.85;;;;;;;24.64;74.05;167022.44;5013978;28;20025;-62
2022/09/01 10:04:35;;;;;;;6.40;1.60;;;;;;;24.22;74.34;166910.91;5012881;28;20042;-62
2022/09/01 10:07:00;;;;;;;2.17;0.80;;;;;;;24.10;71.47;166878.22;5014243;28;20056;-61
2022/09/01 10:09:26;;;;;;;3.83;1.30;;;;;;;24.16;75.21;166895.94;5012289;28;20030;-62
2022/09/01 10:11:54;;;;;;;4.30;1.20;;;;;;;24.19;73.30;166904.13;4995892;28;20117;-63
2022/09/01 10:14:36;;;;;;;4.00;0.98;;;;;;;24.37;72.40;166951.72;4992353;28;20034;-62
2022/09/01 10:17:08;;;;;;;4.82;1.45;;;;;;;24.42;73.21;166963.97;4992613;28;20034;-62
2022/09/01 10:19:34;;;;;;;2.50;1.33;;;;;;;24.40;71.26;166958.50;4991203;28;20046;-62
2022/09/01 10:22:01;;;;;;;5.30;1.20;;;;;;;24.53;71.77;166992.53;4993125;28;20436;-62
2022/09/01 10:24:34;;;;;;;2.90;1.10;;;;;;;24.01;72.31;166856.53;4991057;28;20103;-62
2022/09/01 10:27:02;;;;;;;1.80;1.33;;;;;;;23.41;72.02;166698.75;4993326;28;20026;-62
2022/09/01 10:29:33;;;;;;;3.03;1.02;;;;;;;23.50;72.16;166720.44;4992120;28;20045;-62
2022/09/01 10:31:59;;;;;;;0.88;0.85;;;;;;;23.79;72.56;166796.63;4993514;28;20022;-62
2022/09/01 10:34:29;;;;;;;0.95;0.80;;;;;;;23.89;70.21;166823.81;4992382;28;20046;-62
2022/09/01 10:36:54;;;;;;;3.05;1.20;;;;;;;24.27;70.46;166924.50;4992823;28;20385;-62
2022/09/01 10:39:20;;;;;;;1.23;0.80;;;;;;;24.21;70.12;166908.19;4991522;28;20046;-62
2022/09/01 10:41:52;;;;;;;3.00;1.25;;;;;;;24.20;71.00;166905.44;4990859;28;20045;-62
2022/09/01 10:44:53;;;;;;;2.15;1.00;;;;;;;24.06;70.59;166870.09;4995650;28;20069;-62
2022/09/01 10:47:28;;;;;;;2.78;0.85;;;;;;;24.22;68.46;166910.91;4993510;28;20034;-62
2022/09/01 10:49:53;;;;;;;3.70;0.90;;;;;;;24.60;71.69;167011.56;4992252;28;20113;-62
2022/09/01 10:52:40;;;;;;;1.95;0.82;;;;;;;24.77;68.61;167056.50;4993755;28;20113;-62
2022/09/01 10:55:29;;;;;;;2.20;1.00;;;;;;;24.77;68.09;167055.09;4991902;28;20042;-62
2022/09/01 10:58:39;;;;;;;9.48;1.27;;;;;;;24.35;68.87;166946.25;4993363;28;20044;-62
2022/09/01 11:01:04;;;;;;;4.45;0.90;;;;;;;23.23;69.42;166649.78;4972606;28;20498;-62
2022/09/01 11:03:30;;;;;;;1.85;1.33;;;;;;;23.51;71.02;166724.56;4993460;28;20030;-62
2022/09/01 11:06:08;;;;;;;1.77;0.75;;;;;;;23.86;70.16;166815.66;4992347;28;20052;-62
2022/09/01 11:08:33;;;;;;;2.03;1.23;;;;;;;24.12;71.40;166883.69;4992855;28;20041;-62
2022/09/01 11:11:11;;;;;;;1.98;1.00;;;;;;;24.65;71.37;167023.75;4990644;28;20109;-62
2022/09/01 11:13:49;;;;;;;3.78;1.23;;;;;;;24.83;67.92;167072.81;4993115;28;20042;-63
2022/09/01 11:16:37;;;;;;;4.50;1.58;;;;;;;24.23;68.31;166913.63;4991739;28;20041;-62
2022/09/01 11:19:27;;;;;;;3.00;1.00;;;;;;;23.93;68.71;166834.75;4991800;28;20503;-62
2022/09/01 11:22:08;;;;;;;16.27;1.45;;;;;;;24.00;68.69;166853.78;4992887;28;20057;-62
2022/09/01 11:24:40;;;;;;;2.45;0.65;;;;;;;24.14;68.58;166889.13;4991497;28;20030;-62
2022/09/01 11:27:08;;;;;;;4.90;0.90;;;;;;;24.19;68.55;166902.72;4993132;28;20042;-62
2022/09/01 11:29:50;;;;;;;;;;;;;;;24.34;67.89;166943.53;4991633;28;20038;-62
2022/09/01 11:32:16;;;;;;;4.95;1.15;;;;;;;24.06;66.92;166870.09;4992999;28;19920;-62
2022/09/01 11:34:44;;;;;;;3.75;1.30;;;;;;;23.70;67.16;166774.88;4991380;28;20035;-62